aviador You're here:

KGWW Decoded Metar

GOLDSBORO/WAYNE in NC, USA
Report Time2018-07-22 02:35:00
UTC Time2018-07-22 03:00:10
Flight Rules vfr VFR
WindCalm
Visibility9999 m
Phenomena:N/A
Clouds:N/A
Expected CloudBase > 400 ft AGL from Temp-Dew spread
CeilingNone
Temp23°C (ISA +8)
Dew Point22°C (94% RH)
QNH1009 hPa
Density Alt1,578 ft
Elevation135 ft
Report Wrong Elevation
Raw Report
KGWW 220235Z AUTO 00000KT 10SM CLR 23/22 A2979 RMK AO2
T02320218=

Extra information for KGWW:More info

Metar Taf Metar & Taf Last 4 Metars F.Rules Stats Wind Profile Meteogram Temp Stats Airport Information Weather charts Add Link Nearby VenuesMetar ALERT Operation Metar Decoded Social comments

AIRNAV info for KGWW